Weather at Tenerife Sur Airport

Public forecast

Using degrees Celsius for public forecast. Weather courtesy of forecast.io.

Current aviation weather report (METAR) for Tenerife Sur Airport

Report is more than 6 hours old.

2022/11/14 15:30 (retrieved 2 years ago)

GCTS 141530Z 12006KT 050V160 CAVOK 30/03 Q1019 NOSIG

Aviation forecast (TAF) for Tenerife Sur Airport

Forecast is more than 12 hours old.

2023/02/22 21:00 (retrieved 1 year ago)

TAF GCTS 222000Z 2221/2321 04007KT 9999 SCT030 TX20/2314Z TN14/2306Z PROB40 TEMPO 2312/2318 17010KT